sensor_id;sensor_type;location;lat;lon;timestamp;pressure;altitude;pressure_sealevel;temperature;humidity
64792;BME280;51226;47.504;19.074;2024-03-08T00:02:21;100595.31;;;9.38;64.92
64792;BME280;51226;47.504;19.074;2024-03-08T00:05:24;100595.81;;;9.68;63.68
64792;BME280;51226;47.504;19.074;2024-03-08T00:08:26;100582.31;;;9.57;64.28
64792;BME280;51226;47.504;19.074;2024-03-08T00:11:29;100593.19;;;9.49;64.89
64792;BME280;51226;47.504;19.074;2024-03-08T00:14:34;100592.75;;;9.57;64.13
64792;BME280;51226;47.504;19.074;2024-03-08T00:17:38;100586.75;;;9.60;63.80
64792;BME280;51226;47.504;19.074;2024-03-08T00:20:40;100600.34;;;9.53;64.21
64792;BME280;51226;47.504;19.074;2024-03-08T00:23:44;100599.97;;;9.45;64.51
64792;BME280;51226;47.504;19.074;2024-03-08T00:26:47;100593.06;;;9.45;64.96
64792;BME280;51226;47.504;19.074;2024-03-08T00:29:51;100592.84;;;9.60;64.65
64792;BME280;51226;47.504;19.074;2024-03-08T00:32:53;100590.94;;;9.56;64.75
64792;BME280;51226;47.504;19.074;2024-03-08T00:35:56;100589.84;;;9.51;64.88
64792;BME280;51226;47.504;19.074;2024-03-08T00:38:59;100586.75;;;9.60;64.58
64792;BME280;51226;47.504;19.074;2024-03-08T00:42:03;100578.47;;;9.69;64.00
64792;BME280;51226;47.504;19.074;2024-03-08T00:45:06;100571.22;;;9.81;63.08
64792;BME280;51226;47.504;19.074;2024-03-08T00:48:09;100576.63;;;9.66;64.08
64792;BME280;51226;47.504;19.074;2024-03-08T00:51:13;100572.50;;;9.52;64.80
64792;BME280;51226;47.504;19.074;2024-03-08T00:54:18;100572.50;;;9.71;64.21
64792;BME280;51226;47.504;19.074;2024-03-08T00:57:20;100576.91;;;9.72;63.95
64792;BME280;51226;47.504;19.074;2024-03-08T01:00:24;100577.94;;;9.76;63.43
64792;BME280;51226;47.504;19.074;2024-03-08T01:03:27;100579.34;;;9.89;62.84
64792;BME280;51226;47.504;19.074;2024-03-08T01:06:30;100580.19;;;9.88;62.68
64792;BME280;51226;47.504;19.074;2024-03-08T01:09:33;100572.50;;;9.91;63.32
64792;BME280;51226;47.504;19.074;2024-03-08T01:12:37;100575.03;;;9.89;63.36
64792;BME280;51226;47.504;19.074;2024-03-08T01:15:39;100567.53;;;9.97;62.85
64792;BME280;51226;47.504;19.074;2024-03-08T01:18:44;100562.41;;;9.98;62.30
64792;BME280;51226;47.504;19.074;2024-03-08T01:21:47;100557.97;;;9.76;63.20
64792;BME280;51226;47.504;19.074;2024-03-08T01:24:49;100563.19;;;9.76;63.42
64792;BME280;51226;47.504;19.074;2024-03-08T01:27:52;100563.88;;;9.72;63.69
64792;BME280;51226;47.504;19.074;2024-03-08T01:30:59;100566.03;;;10.02;62.42
64792;BME280;51226;47.504;19.074;2024-03-08T01:34:02;100568.19;;;9.91;62.70
64792;BME280;51226;47.504;19.074;2024-03-08T01:37:05;100568.75;;;9.64;63.46
64792;BME280;51226;47.504;19.074;2024-03-08T01:40:08;100574.12;;;9.89;62.74
64792;BME280;51226;47.504;19.074;2024-03-08T01:43:18;100567.59;;;9.98;62.06
64792;BME280;51226;47.504;19.074;2024-03-08T01:46:21;100573.47;;;9.73;62.88
64792;BME280;51226;47.504;19.074;2024-03-08T01:49:25;100567.59;;;9.58;63.95
64792;BME280;51226;47.504;19.074;2024-03-08T01:52:28;100567.94;;;9.66;63.46
64792;BME280;51226;47.504;19.074;2024-03-08T01:55:34;100561.38;;;9.95;61.75
64792;BME280;51226;47.504;19.074;2024-03-08T01:58:38;100559.78;;;9.77;62.25
64792;BME280;51226;47.504;19.074;2024-03-08T02:01:42;100560.84;;;9.82;62.10
64792;BME280;51226;47.504;19.074;2024-03-08T02:04:45;100573.59;;;9.76;62.41
64792;BME280;51226;47.504;19.074;2024-03-08T02:07:48;100559.28;;;10.07;61.31
64792;BME280;51226;47.504;19.074;2024-03-08T02:10:51;100570.13;;;9.76;62.06
64792;BME280;51226;47.504;19.074;2024-03-08T02:13:53;100565.09;;;9.80;62.19
64792;BME280;51226;47.504;19.074;2024-03-08T02:17:00;100564.53;;;9.49;63.75
64792;BME280;51226;47.504;19.074;2024-03-08T02:20:03;100566.50;;;9.72;62.56
64792;BME280;51226;47.504;19.074;2024-03-08T02:23:07;100571.00;;;9.57;63.38
64792;BME280;51226;47.504;19.074;2024-03-08T02:26:09;100567.28;;;9.52;63.55
64792;BME280;51226;47.504;19.074;2024-03-08T02:29:12;100570.62;;;10.08;60.77
64792;BME280;51226;47.504;19.074;2024-03-08T02:32:16;100575.47;;;9.59;62.20
64792;BME280;51226;47.504;19.074;2024-03-08T02:35:19;100567.03;;;9.45;62.59
64792;BME280;51226;47.504;19.074;2024-03-08T02:38:22;100570.84;;;9.54;62.63
64792;BME280;51226;47.504;19.074;2024-03-08T02:41:25;100563.47;;;9.63;62.16
64792;BME280;51226;47.504;19.074;2024-03-08T02:44:27;100559.81;;;9.40;62.29
64792;BME280;51226;47.504;19.074;2024-03-08T02:47:30;100562.78;;;9.48;61.97
64792;BME280;51226;47.504;19.074;2024-03-08T02:50:34;100567.59;;;9.58;61.26
64792;BME280;51226;47.504;19.074;2024-03-08T02:53:37;100565.47;;;9.49;61.23
64792;BME280;51226;47.504;19.074;2024-03-08T02:56:40;100570.75;;;9.51;61.09
64792;BME280;51226;47.504;19.074;2024-03-08T02:59:44;100572.44;;;9.50;60.61
64792;BME280;51226;47.504;19.074;2024-03-08T03:02:51;100581.41;;;9.57;59.93
64792;BME280;51226;47.504;19.074;2024-03-08T03:05:57;100570.25;;;9.59;60.12
64792;BME280;51226;47.504;19.074;2024-03-08T03:09:00;100574.75;;;9.63;59.14
64792;BME280;51226;47.504;19.074;2024-03-08T03:12:03;100574.22;;;9.51;59.78
64792;BME280;51226;47.504;19.074;2024-03-08T03:15:06;100575.66;;;9.44;60.40
64792;BME280;51226;47.504;19.074;2024-03-08T03:18:09;100575.44;;;9.40;60.66
64792;BME280;51226;47.504;19.074;2024-03-08T03:21:12;100572.34;;;9.49;60.22
64792;BME280;51226;47.504;19.074;2024-03-08T03:24:15;100576.06;;;9.93;58.31
64792;BME280;51226;47.504;19.074;2024-03-08T03:27:19;100584.03;;;9.76;58.74
64792;BME280;51226;47.504;19.074;2024-03-08T03:30:23;100579.34;;;9.89;58.19
64792;BME280;51226;47.504;19.074;2024-03-08T03:33:26;100585.94;;;9.80;58.38
64792;BME280;51226;47.504;19.074;2024-03-08T03:36:31;100585.09;;;9.62;59.32
64792;BME280;51226;47.504;19.074;2024-03-08T03:39:35;100581.34;;;9.55;59.78
64792;BME280;51226;47.504;19.074;2024-03-08T03:42:47;100581.97;;;9.69;59.58
64792;BME280;51226;47.504;19.074;2024-03-08T03:45:49;100581.00;;;9.87;58.82
64792;BME280;51226;47.504;19.074;2024-03-08T03:48:56;100586.69;;;9.58;59.69
64792;BME280;51226;47.504;19.074;2024-03-08T03:51:59;100581.59;;;9.42;60.61
64792;BME280;51226;47.504;19.074;2024-03-08T03:55:03;100581.00;;;9.48;60.51
64792;BME280;51226;47.504;19.074;2024-03-08T03:58:07;100581.00;;;9.67;59.77
64792;BME280;51226;47.504;19.074;2024-03-08T04:01:09;100586.28;;;9.69;59.52
64792;BME280;51226;47.504;19.074;2024-03-08T04:04:13;100582.91;;;9.52;60.05
64792;BME280;51226;47.504;19.074;2024-03-08T04:07:15;100588.94;;;9.70;59.39
64792;BME280;51226;47.504;19.074;2024-03-08T04:10:18;100584.41;;;9.46;60.55
64792;BME280;51226;47.504;19.074;2024-03-08T04:13:20;100587.13;;;9.68;59.94
64792;BME280;51226;47.504;19.074;2024-03-08T04:16:23;100588.88;;;9.49;60.51
64792;BME280;51226;47.504;19.074;2024-03-08T04:19:26;100579.16;;;9.64;59.37
64792;BME280;51226;47.504;19.074;2024-03-08T04:22:30;100590.22;;;9.21;61.10
64792;BME280;51226;47.504;19.074;2024-03-08T04:25:33;100589.56;;;9.25;61.19
64792;BME280;51226;47.504;19.074;2024-03-08T04:28:36;100588.47;;;9.40;61.19
64792;BME280;51226;47.504;19.074;2024-03-08T04:31:39;100587.91;;;9.67;60.59
64792;BME280;51226;47.504;19.074;2024-03-08T04:34:42;100588.12;;;9.52;60.68
64792;BME280;51226;47.504;19.074;2024-03-08T04:37:47;100594.53;;;9.40;61.41
64792;BME280;51226;47.504;19.074;2024-03-08T04:40:50;100592.59;;;9.54;61.03
64792;BME280;51226;47.504;19.074;2024-03-08T04:43:53;100586.75;;;9.60;61.09
64792;BME280;51226;47.504;19.074;2024-03-08T04:46:56;100586.00;;;9.43;61.64
64792;BME280;51226;47.504;19.074;2024-03-08T04:49:59;100597.78;;;9.17;62.38
64792;BME280;51226;47.504;19.074;2024-03-08T04:53:02;100601.69;;;9.44;60.95
64792;BME280;51226;47.504;19.074;2024-03-08T04:56:05;100597.13;;;9.21;61.48
64792;BME280;51226;47.504;19.074;2024-03-08T04:59:10;100597.13;;;9.21;61.46
64792;BME280;51226;47.504;19.074;2024-03-08T05:02:12;100598.88;;;9.02;62.11
64792;BME280;51226;47.504;19.074;2024-03-08T05:05:15;100600.38;;;9.35;61.36
64792;BME280;51226;47.504;19.074;2024-03-08T05:08:17;100598.47;;;9.13;61.86
64792;BME280;51226;47.504;19.074;2024-03-08T05:11:23;100598.31;;;9.27;61.78
64792;BME280;51226;47.504;19.074;2024-03-08T05:14:26;100596.03;;;9.35;61.08
64792;BME280;51226;47.504;19.074;2024-03-08T05:17:29;100598.78;;;9.19;61.61
64792;BME280;51226;47.504;19.074;2024-03-08T05:20:32;100598.00;;;9.21;61.90
64792;BME280;51226;47.504;19.074;2024-03-08T05:23:35;100598.25;;;9.26;61.38
64792;BME280;51226;47.504;19.074;2024-03-08T05:26:38;100599.87;;;9.24;61.48
64792;BME280;51226;47.504;19.074;2024-03-08T05:29:41;100602.72;;;9.11;62.04
64792;BME280;51226;47.504;19.074;2024-03-08T05:32:44;100612.06;;;9.25;61.73
64792;BME280;51226;47.504;19.074;2024-03-08T05:35:49;100608.78;;;9.29;61.31
64792;BME280;51226;47.504;19.074;2024-03-08T05:38:52;100605.34;;;9.11;62.29
64792;BME280;51226;47.504;19.074;2024-03-08T05:41:57;100611.66;;;9.35;61.16
64792;BME280;51226;47.504;19.074;2024-03-08T05:45:00;100613.31;;;9.33;61.10
64792;BME280;51226;47.504;19.074;2024-03-08T05:48:03;100613.91;;;9.45;60.49
64792;BME280;51226;47.504;19.074;2024-03-08T05:51:05;100624.09;;;9.41;60.33
64792;BME280;51226;47.504;19.074;2024-03-08T05:54:11;100627.44;;;9.20;60.85
64792;BME280;51226;47.504;19.074;2024-03-08T05:57:18;100628.94;;;9.33;60.26
64792;BME280;51226;47.504;19.074;2024-03-08T06:00:21;100637.44;;;9.29;60.24
64792;BME280;51226;47.504;19.074;2024-03-08T06:03:27;100635.88;;;9.15;60.72
64792;BME280;51226;47.504;19.074;2024-03-08T06:06:30;100633.25;;;9.15;60.86
64792;BME280;51226;47.504;19.074;2024-03-08T06:09:33;100637.91;;;9.02;61.06
64792;BME280;51226;47.504;19.074;2024-03-08T06:12:36;100643.25;;;9.05;60.77
64792;BME280;51226;47.504;19.074;2024-03-08T06:15:45;100642.62;;;9.11;61.18
64792;BME280;51226;47.504;19.074;2024-03-08T06:18:48;100634.22;;;9.17;60.92
64792;BME280;51226;47.504;19.074;2024-03-08T06:21:50;100646.28;;;9.15;60.92
64792;BME280;51226;47.504;19.074;2024-03-08T06:24:54;100648.56;;;9.08;61.43
64792;BME280;51226;47.504;19.074;2024-03-08T06:27:56;100652.44;;;9.17;61.63
64792;BME280;51226;47.504;19.074;2024-03-08T06:30:59;100653.78;;;9.08;61.41
64792;BME280;51226;47.504;19.074;2024-03-08T06:34:02;100644.94;;;9.23;60.89
64792;BME280;51226;47.504;19.074;2024-03-08T06:37:05;100649.53;;;9.28;60.45
64792;BME280;51226;47.504;19.074;2024-03-08T06:40:09;100655.03;;;9.35;60.48
64792;BME280;51226;47.504;19.074;2024-03-08T06:43:17;100651.41;;;9.31;60.65
64792;BME280;51226;47.504;19.074;2024-03-08T06:46:21;100654.31;;;9.19;61.44
64792;BME280;51226;47.504;19.074;2024-03-08T06:49:24;100652.19;;;9.30;61.40
64792;BME280;51226;47.504;19.074;2024-03-08T06:52:26;100660.84;;;9.29;61.48
64792;BME280;51226;47.504;19.074;2024-03-08T06:55:29;100657.72;;;9.36;61.34
64792;BME280;51226;47.504;19.074;2024-03-08T06:58:32;100656.00;;;9.37;61.17
64792;BME280;51226;47.504;19.074;2024-03-08T07:01:35;100656.72;;;9.52;60.69
64792;BME280;51226;47.504;19.074;2024-03-08T07:04:39;100661.56;;;9.44;60.90
64792;BME280;51226;47.504;19.074;2024-03-08T07:07:42;100659.97;;;9.66;60.17
64792;BME280;51226;47.504;19.074;2024-03-08T07:10:45;100661.72;;;9.48;60.58
64792;BME280;51226;47.504;19.074;2024-03-08T07:13:48;100659.66;;;9.60;60.57
64792;BME280;51226;47.504;19.074;2024-03-08T07:16:50;100663.91;;;9.58;60.87
64792;BME280;51226;47.504;19.074;2024-03-08T07:19:53;100656.09;;;9.58;60.95
64792;BME280;51226;47.504;19.074;2024-03-08T07:22:56;100666.38;;;9.55;60.98
64792;BME280;51226;47.504;19.074;2024-03-08T07:25:59;100663.81;;;9.74;59.77
64792;BME280;51226;47.504;19.074;2024-03-08T07:29:03;100666.66;;;9.61;60.60
64792;BME280;51226;47.504;19.074;2024-03-08T07:32:06;100665.50;;;9.74;59.96
64792;BME280;51226;47.504;19.074;2024-03-08T07:35:23;100666.41;;;9.94;59.22
64792;BME280;51226;47.504;19.074;2024-03-08T07:38:26;100669.53;;;9.48;61.01
64792;BME280;51226;47.504;19.074;2024-03-08T07:41:29;100670.31;;;9.64;60.97
64792;BME280;51226;47.504;19.074;2024-03-08T07:44:32;100676.28;;;9.81;59.95
64792;BME280;51226;47.504;19.074;2024-03-08T07:47:35;100675.00;;;9.54;61.18
64792;BME280;51226;47.504;19.074;2024-03-08T07:50:39;100674.22;;;9.74;60.69
64792;BME280;51226;47.504;19.074;2024-03-08T07:53:43;100676.28;;;9.81;60.35
64792;BME280;51226;47.504;19.074;2024-03-08T07:56:46;100672.56;;;9.76;60.73
64792;BME280;51226;47.504;19.074;2024-03-08T07:59:49;100677.78;;;9.76;61.03
64792;BME280;51226;47.504;19.074;2024-03-08T08:02:52;100684.34;;;9.68;61.55
64792;BME280;51226;47.504;19.074;2024-03-08T08:05:54;100678.75;;;9.98;60.37
64792;BME280;51226;47.504;19.074;2024-03-08T08:08:57;100676.56;;;9.88;60.94
64792;BME280;51226;47.504;19.074;2024-03-08T08:12:00;100671.63;;;9.94;60.76
64792;BME280;51226;47.504;19.074;2024-03-08T08:15:06;100679.78;;;9.82;61.21
64792;BME280;51226;47.504;19.074;2024-03-08T08:18:09;100678.13;;;9.64;61.74
64792;BME280;51226;47.504;19.074;2024-03-08T08:21:12;100678.19;;;9.66;61.87
64792;BME280;51226;47.504;19.074;2024-03-08T08:24:15;100674.63;;;9.83;61.25
64792;BME280;51226;47.504;19.074;2024-03-08T08:27:18;100679.84;;;9.83;61.86
64792;BME280;51226;47.504;19.074;2024-03-08T08:30:20;100681.37;;;9.98;61.49
64792;BME280;51226;47.504;19.074;2024-03-08T08:33:23;100681.94;;;9.91;61.70
64792;BME280;51226;47.504;19.074;2024-03-08T08:36:28;100681.09;;;9.92;61.93
64792;BME280;51226;47.504;19.074;2024-03-08T08:39:32;100674.63;;;9.83;62.17
64792;BME280;51226;47.504;19.074;2024-03-08T08:42:37;100676.97;;;9.97;62.07
64792;BME280;51226;47.504;19.074;2024-03-08T08:45:40;100677.84;;;10.17;61.01
64792;BME280;51226;47.504;19.074;2024-03-08T08:48:43;100664.44;;;10.08;61.53
64792;BME280;51226;47.504;19.074;2024-03-08T08:51:50;100669.84;;;9.93;62.42
64792;BME280;51226;47.504;19.074;2024-03-08T08:54:54;100671.63;;;9.94;62.83
64792;BME280;51226;47.504;19.074;2024-03-08T08:57:57;100674.31;;;10.15;62.34
64792;BME280;51226;47.504;19.074;2024-03-08T09:01:00;100678.06;;;10.22;62.41
64792;BME280;51226;47.504;19.074;2024-03-08T09:04:04;100669.22;;;10.18;62.73
64792;BME280;51226;47.504;19.074;2024-03-08T09:07:06;100678.28;;;10.26;62.54
64792;BME280;51226;47.504;19.074;2024-03-08T09:10:09;100679.59;;;10.77;60.35
64792;BME280;51226;47.504;19.074;2024-03-08T09:13:17;100668.94;;;11.14;59.20
64792;BME280;51226;47.504;19.074;2024-03-08T09:16:33;100675.06;;;10.93;59.51
64792;BME280;51226;47.504;19.074;2024-03-08T09:19:35;100670.94;;;10.78;60.12
64792;BME280;51226;47.504;19.074;2024-03-08T09:22:39;100665.78;;;10.58;61.25
64792;BME280;51226;47.504;19.074;2024-03-08T09:25:43;100668.81;;;11.11;58.79
64792;BME280;51226;47.504;19.074;2024-03-08T09:28:49;100669.38;;;11.04;59.03
64792;BME280;51226;47.504;19.074;2024-03-08T09:31:52;100667.84;;;11.09;58.82
64792;BME280;51226;47.504;19.074;2024-03-08T09:34:55;100669.59;;;11.08;58.73
64792;BME280;51226;47.504;19.074;2024-03-08T09:37:58;100677.41;;;10.66;60.28
64792;BME280;51226;47.504;19.074;2024-03-08T09:41:01;100673.09;;;10.67;60.60
64792;BME280;51226;47.504;19.074;2024-03-08T09:44:04;100674.47;;;11.01;59.37
64792;BME280;51226;47.504;19.074;2024-03-08T09:47:07;100667.50;;;10.79;59.72
64792;BME280;51226;47.504;19.074;2024-03-08T09:50:11;100670.78;;;10.96;59.70
64792;BME280;51226;47.504;19.074;2024-03-08T09:53:17;100670.59;;;11.12;59.31
64792;BME280;51226;47.504;19.074;2024-03-08T09:56:21;100669.84;;;11.37;58.59
64792;BME280;51226;47.504;19.074;2024-03-08T09:59:26;100662.78;;;11.35;58.47
64792;BME280;51226;47.504;19.074;2024-03-08T10:02:28;100673.41;;;11.39;58.08
64792;BME280;51226;47.504;19.074;2024-03-08T10:05:31;100668.09;;;11.15;59.09
64792;BME280;51226;47.504;19.074;2024-03-08T10:08:37;100663.63;;;11.34;58.68
64792;BME280;51226;47.504;19.074;2024-03-08T10:11:40;100680.97;;;11.10;59.79
64792;BME280;51226;47.504;19.074;2024-03-08T10:14:42;100670.78;;;11.17;58.32
64792;BME280;51226;47.504;19.074;2024-03-08T10:17:46;100673.03;;;10.86;59.61
64792;BME280;51226;47.504;19.074;2024-03-08T10:21:07;100673.66;;;10.81;60.37
64792;BME280;51226;47.504;19.074;2024-03-08T10:24:12;100677.03;;;10.99;60.50
64792;BME280;51226;47.504;19.074;2024-03-08T10:27:18;100670.22;;;11.46;59.33
64792;BME280;51226;47.504;19.074;2024-03-08T10:30:21;100665.88;;;11.70;58.39
64792;BME280;51226;47.504;19.074;2024-03-08T10:33:24;100670.06;;;11.66;58.47
64792;BME280;51226;47.504;19.074;2024-03-08T10:36:28;100673.06;;;11.75;58.41
64792;BME280;51226;47.504;19.074;2024-03-08T10:39:37;100663.16;;;11.91;57.98
64792;BME280;51226;47.504;19.074;2024-03-08T10:42:40;100660.34;;;12.33;55.79
64792;BME280;51226;47.504;19.074;2024-03-08T10:45:44;100668.44;;;12.15;56.85
64792;BME280;51226;47.504;19.074;2024-03-08T10:48:51;100656.12;;;12.62;54.75
64792;BME280;51226;47.504;19.074;2024-03-08T10:51:54;100656.12;;;12.36;55.76
64792;BME280;51226;47.504;19.074;2024-03-08T10:54:59;100655.91;;;12.06;56.84
64792;BME280;51226;47.504;19.074;2024-03-08T10:58:01;100650.03;;;11.89;57.70
64792;BME280;51226;47.504;19.074;2024-03-08T11:01:04;100659.19;;;12.00;56.96
64792;BME280;51226;47.504;19.074;2024-03-08T11:04:09;100657.37;;;11.98;56.69
64792;BME280;51226;47.504;19.074;2024-03-08T11:07:12;100662.28;;;11.90;56.81
64792;BME280;51226;47.504;19.074;2024-03-08T11:10:20;100666.16;;;12.00;55.95
64792;BME280;51226;47.504;19.074;2024-03-08T11:13:38;100658.88;;;11.68;56.98
64792;BME280;51226;47.504;19.074;2024-03-08T11:16:43;100662.66;;;11.77;56.97
64792;BME280;51226;47.504;19.074;2024-03-08T11:19:47;100655.88;;;12.04;56.31
64792;BME280;51226;47.504;19.074;2024-03-08T11:23:02;100657.53;;;12.02;56.61
64792;BME280;51226;47.504;19.074;2024-03-08T11:26:20;100656.25;;;12.15;56.09
64792;BME280;51226;47.504;19.074;2024-03-08T11:32:38;100649.91;;;12.09;55.67
64792;BME280;51226;47.504;19.074;2024-03-08T11:35:41;100641.06;;;12.05;55.29
64792;BME280;51226;47.504;19.074;2024-03-08T11:38:45;100642.69;;;11.79;56.05
64792;BME280;51226;47.504;19.074;2024-03-08T11:41:51;100639.97;;;11.76;56.40
64792;BME280;51226;47.504;19.074;2024-03-08T11:44:54;100632.66;;;11.67;56.51
64792;BME280;51226;47.504;19.074;2024-03-08T11:47:57;100632.91;;;11.73;56.25
64792;BME280;51226;47.504;19.074;2024-03-08T11:51:01;100628.44;;;11.71;56.48
64792;BME280;51226;47.504;19.074;2024-03-08T11:54:04;100635.34;;;11.91;55.93
64792;BME280;51226;47.504;19.074;2024-03-08T11:57:09;100625.25;;;11.78;56.44
64792;BME280;51226;47.504;19.074;2024-03-08T12:00:15;100630.56;;;12.03;55.70
64792;BME280;51226;47.504;19.074;2024-03-08T12:03:24;100623.34;;;11.96;56.08
64792;BME280;51226;47.504;19.074;2024-03-08T12:06:27;100625.91;;;11.95;55.86
64792;BME280;51226;47.504;19.074;2024-03-08T12:09:39;100619.38;;;12.08;55.73
64792;BME280;51226;47.504;19.074;2024-03-08T12:12:52;100620.00;;;12.00;55.83
64792;BME280;51226;47.504;19.074;2024-03-08T12:15:56;100623.47;;;11.77;56.56
64792;BME280;51226;47.504;19.074;2024-03-08T12:19:00;100622.84;;;11.84;56.17
64792;BME280;51226;47.504;19.074;2024-03-08T12:22:07;100608.88;;;11.59;57.09
64792;BME280;51226;47.504;19.074;2024-03-08T12:25:11;100604.72;;;11.64;57.44
64792;BME280;51226;47.504;19.074;2024-03-08T12:28:15;100607.78;;;11.77;56.97
64792;BME280;51226;47.504;19.074;2024-03-08T12:31:19;100603.56;;;11.80;57.04
64792;BME280;51226;47.504;19.074;2024-03-08T12:34:25;100608.09;;;11.86;57.10
64792;BME280;51226;47.504;19.074;2024-03-08T12:37:29;100603.44;;;12.00;56.84
64792;BME280;51226;47.504;19.074;2024-03-08T12:40:34;100606.75;;;12.20;55.38
64792;BME280;51226;47.504;19.074;2024-03-08T12:43:37;100601.22;;;12.36;54.69
64792;BME280;51226;47.504;19.074;2024-03-08T12:46:40;100600.41;;;12.39;54.56
64792;BME280;51226;47.504;19.074;2024-03-08T12:49:42;100602.81;;;12.33;54.72
64792;BME280;51226;47.504;19.074;2024-03-08T12:52:46;100599.00;;;12.23;55.03
64792;BME280;51226;47.504;19.074;2024-03-08T12:55:49;100597.69;;;12.36;54.38
64792;BME280;51226;47.504;19.074;2024-03-08T12:58:53;100591.53;;;12.08;55.20
64792;BME280;51226;47.504;19.074;2024-03-08T13:01:56;100591.91;;;11.95;55.74
64792;BME280;51226;47.504;19.074;2024-03-08T13:05:01;100587.47;;;11.92;55.63
64792;BME280;51226;47.504;19.074;2024-03-08T13:08:04;100582.09;;;11.89;55.83
64792;BME280;51226;47.504;19.074;2024-03-08T13:11:07;100584.16;;;12.22;54.66
64792;BME280;51226;47.504;19.074;2024-03-08T13:14:10;100583.78;;;12.11;54.88
64792;BME280;51226;47.504;19.074;2024-03-08T13:17:14;100585.66;;;12.15;54.68
64792;BME280;51226;47.504;19.074;2024-03-08T13:20:16;100587.59;;;12.21;54.50
64792;BME280;51226;47.504;19.074;2024-03-08T13:23:33;100583.56;;;12.05;55.09
64792;BME280;51226;47.504;19.074;2024-03-08T13:26:41;100584.06;;;11.95;55.70
64792;BME280;51226;47.504;19.074;2024-03-08T13:29:46;100577.22;;;12.24;54.47
64792;BME280;51226;47.504;19.074;2024-03-08T13:32:51;100582.41;;;12.22;54.41
64792;BME280;51226;47.504;19.074;2024-03-08T13:35:56;100581.41;;;11.93;55.55
64792;BME280;51226;47.504;19.074;2024-03-08T13:39:06;100572.94;;;12.00;55.89
64792;BME280;51226;47.504;19.074;2024-03-08T13:42:18;100573.75;;;11.99;55.88
64792;BME280;51226;47.504;19.074;2024-03-08T13:45:22;100573.53;;;11.69;56.76
64792;BME280;51226;47.504;19.074;2024-03-08T13:48:27;100572.41;;;11.62;57.01
64792;BME280;51226;47.504;19.074;2024-03-08T13:51:30;100572.53;;;11.65;57.27
64792;BME280;51226;47.504;19.074;2024-03-08T13:54:34;100573.81;;;11.77;56.95
64792;BME280;51226;47.504;19.074;2024-03-08T13:57:37;100564.62;;;11.88;56.57
64792;BME280;51226;47.504;19.074;2024-03-08T14:00:40;100567.47;;;11.94;55.84
64792;BME280;51226;47.504;19.074;2024-03-08T14:03:46;100566.59;;;11.94;55.65
64792;BME280;51226;47.504;19.074;2024-03-08T14:06:49;100569.22;;;11.70;56.56
64792;BME280;51226;47.504;19.074;2024-03-08T14:09:51;100566.16;;;11.81;56.43
64792;BME280;51226;47.504;19.074;2024-03-08T14:12:55;100564.62;;;11.64;56.83
64792;BME280;51226;47.504;19.074;2024-03-08T14:15:58;100560.62;;;11.74;56.83
64792;BME280;51226;47.504;19.074;2024-03-08T14:19:01;100562.44;;;11.75;56.26
64792;BME280;51226;47.504;19.074;2024-03-08T14:22:08;100555.28;;;11.71;56.87
64792;BME280;51226;47.504;19.074;2024-03-08T14:25:13;100564.28;;;11.79;56.35
64792;BME280;51226;47.504;19.074;2024-03-08T14:28:20;100548.75;;;11.58;56.95
64792;BME280;51226;47.504;19.074;2024-03-08T14:31:25;100554.12;;;11.62;56.67
64792;BME280;51226;47.504;19.074;2024-03-08T14:34:28;100566.28;;;11.86;55.95
64792;BME280;51226;47.504;19.074;2024-03-08T14:37:32;100557.03;;;11.94;55.43
64792;BME280;51226;47.504;19.074;2024-03-08T14:40:35;100557.50;;;11.84;55.96
64792;BME280;51226;47.504;19.074;2024-03-08T14:43:38;100552.88;;;11.51;57.00
64792;BME280;51226;47.504;19.074;2024-03-08T14:46:41;100550.44;;;11.57;57.08
64792;BME280;51226;47.504;19.074;2024-03-08T14:49:45;100546.97;;;11.57;56.90
64792;BME280;51226;47.504;19.074;2024-03-08T14:52:51;100549.16;;;11.46;57.25
64792;BME280;51226;47.504;19.074;2024-03-08T14:55:54;100552.56;;;11.67;56.52
64792;BME280;51226;47.504;19.074;2024-03-08T14:58:58;100549.06;;;11.43;57.39
64792;BME280;51226;47.504;19.074;2024-03-08T15:02:02;100541.69;;;11.55;57.33
64792;BME280;51226;47.504;19.074;2024-03-08T15:05:08;100546.53;;;11.44;57.54
64792;BME280;51226;47.504;19.074;2024-03-08T15:08:13;100542.56;;;11.31;58.21
64792;BME280;51226;47.504;19.074;2024-03-08T15:11:23;100536.22;;;11.25;58.55
64792;BME280;51226;47.504;19.074;2024-03-08T15:14:28;100543.94;;;11.46;57.44
64792;BME280;51226;47.504;19.074;2024-03-08T15:17:31;100544.31;;;11.32;57.83
64792;BME280;51226;47.504;19.074;2024-03-08T15:20:33;100539.34;;;11.39;57.50
64792;BME280;51226;47.504;19.074;2024-03-08T15:23:37;100535.44;;;11.27;57.81
64792;BME280;51226;47.504;19.074;2024-03-08T15:26:40;100539.25;;;11.13;58.20
64792;BME280;51226;47.504;19.074;2024-03-08T15:29:43;100537.09;;;11.25;57.85
64792;BME280;51226;47.504;19.074;2024-03-08T15:32:50;100539.81;;;11.28;58.03
64792;BME280;51226;47.504;19.074;2024-03-08T15:35:53;100540.94;;;11.12;58.55
64792;BME280;51226;47.504;19.074;2024-03-08T15:39:02;100543.09;;;11.23;58.37
64792;BME280;51226;47.504;19.074;2024-03-08T15:42:05;100540.06;;;11.35;58.17
64792;BME280;51226;47.504;19.074;2024-03-08T15:45:09;100542.13;;;11.21;58.35
64792;BME280;51226;47.504;19.074;2024-03-08T15:48:14;100537.59;;;11.15;58.74
64792;BME280;51226;47.504;19.074;2024-03-08T15:51:18;100539.13;;;11.10;58.91
64792;BME280;51226;47.504;19.074;2024-03-08T15:54:22;100539.94;;;11.09;58.89
64792;BME280;51226;47.504;19.074;2024-03-08T15:57:25;100539.38;;;11.16;58.67
64792;BME280;51226;47.504;19.074;2024-03-08T16:00:28;100539.88;;;11.07;59.06